createdAt,value
2017-01-18T00:00:03.989Z,1061.11
2017-01-18T00:01:03.972Z,1060.98
2017-01-18T00:02:03.952Z,1060.89
2017-01-18T00:03:03.934Z,1060.77
2017-01-18T00:04:03.916Z,1060.74
2017-01-18T00:05:03.898Z,1060.64
2017-01-18T00:06:03.880Z,1060.69
2017-01-18T00:07:03.862Z,1060.63
2017-01-18T00:08:03.849Z,1060.62
2017-01-18T00:09:03.826Z,1060.58
2017-01-18T00:10:03.808Z,1060.49
2017-01-18T00:11:03.790Z,1060.44
2017-01-18T00:12:03.774Z,1060.35
2017-01-18T00:13:03.754Z,1060.28
2017-01-18T00:14:03.739Z,1060.2
2017-01-18T00:15:03.719Z,1060.12
2017-01-18T00:16:03.700Z,1060.1
2017-01-18T00:17:03.683Z,1060.03
2017-01-18T00:18:03.666Z,1060
2017-01-18T00:19:03.650Z,1059.98
2017-01-18T00:20:03.630Z,1059.9
2017-01-18T00:21:03.612Z,1059.83
2017-01-18T00:22:03.595Z,1059.78
2017-01-18T00:23:03.578Z,1059.71
2017-01-18T00:24:03.561Z,1059.69
2017-01-18T00:25:03.542Z,1059.67
2017-01-18T00:26:03.525Z,1059.66
2017-01-18T00:27:03.507Z,1059.62
2017-01-18T00:28:03.490Z,1059.62
2017-01-18T00:29:03.472Z,1059.62
2017-01-18T00:30:03.455Z,1059.65
2017-01-18T00:31:03.438Z,1059.63
2017-01-18T00:32:03.422Z,1059.59
2017-01-18T00:33:03.403Z,1059.57
2017-01-18T00:34:03.387Z,1059.52
2017-01-18T00:35:03.368Z,1059.52
2017-01-18T00:36:03.352Z,1059.5
2017-01-18T00:37:03.334Z,1059.44
2017-01-18T00:38:03.317Z,1059.35
2017-01-18T00:39:03.300Z,1059.35
2017-01-18T00:40:03.290Z,1059.31
2017-01-18T00:41:03.266Z,1059.33
2017-01-18T00:42:03.250Z,1059.32
2017-01-18T00:43:03.232Z,1059.31
2017-01-18T00:44:03.215Z,1059.28
2017-01-18T00:45:03.198Z,1059.3
2017-01-18T00:46:03.182Z,1059.35
2017-01-18T00:47:03.165Z,1059.35
2017-01-18T00:48:03.148Z,1059.36
2017-01-18T00:49:03.131Z,1059.35
2017-01-18T00:50:03.114Z,1059.3
2017-01-18T00:51:03.098Z,1059.28
2017-01-18T00:52:03.081Z,1059.25
2017-01-18T00:53:03.064Z,1059.18
2017-01-18T00:54:03.047Z,1059.15
2017-01-18T00:55:03.030Z,1059.1
2017-01-18T00:56:03.014Z,1059.14
2017-01-18T00:57:02.998Z,1059.11
2017-01-18T00:58:02.980Z,1059.18
2017-01-18T00:59:02.965Z,1059.22
2017-01-18T01:00:02.947Z,1059.24
2017-01-18T01:01:02.930Z,1059.25
2017-01-18T01:02:02.914Z,1059.26
2017-01-18T01:03:02.898Z,1059.27
2017-01-18T01:04:02.880Z,1059.25
2017-01-18T01:05:02.864Z,1059.19
2017-01-18T01:06:02.848Z,1059.23
2017-01-18T01:07:02.830Z,1059.22
2017-01-18T01:08:02.814Z,1059.2
2017-01-18T01:09:02.798Z,1059.18
2017-01-18T01:10:02.782Z,1059.18
2017-01-18T01:11:02.766Z,1059.16
2017-01-18T01:12:02.748Z,1059.18
2017-01-18T01:13:02.732Z,1059.15
2017-01-18T01:14:02.715Z,1059.16
2017-01-18T01:15:02.698Z,1059.14
2017-01-18T01:16:02.681Z,1059.1
2017-01-18T01:17:02.665Z,1059.19
2017-01-18T01:18:02.648Z,1059.17
2017-01-18T01:19:02.635Z,1059.14
2017-01-18T01:20:02.616Z,1059.16
2017-01-18T01:21:02.599Z,1059.11
2017-01-18T01:22:02.582Z,1059.07
2017-01-18T01:23:02.566Z,1059.07
2017-01-18T01:24:02.550Z,1059.1
2017-01-18T01:25:02.534Z,1059.09
2017-01-18T01:26:02.516Z,1059.09
2017-01-18T01:27:02.500Z,1059.08
2017-01-18T01:28:02.485Z,1059.08
2017-01-18T01:29:02.468Z,1059.09
2017-01-18T01:30:02.451Z,1059.05
2017-01-18T01:31:02.435Z,1059.05
2017-01-18T01:32:02.419Z,1059.08
2017-01-18T01:33:02.427Z,1059.12
2017-01-18T01:34:02.386Z,1059.15
2017-01-18T01:35:02.369Z,1059.17
2017-01-18T01:36:02.353Z,1059.17
2017-01-18T01:37:02.336Z,1059.13
2017-01-18T01:38:02.320Z,1059.17
2017-01-18T01:39:02.304Z,1059.18
2017-01-18T01:40:02.287Z,1059.14
2017-01-18T01:41:02.271Z,1059.11
2017-01-18T01:42:02.255Z,1059.1
2017-01-18T01:43:02.239Z,1059.07
2017-01-18T01:44:02.222Z,1059.07
2017-01-18T01:45:02.206Z,1059.15
2017-01-18T01:46:02.190Z,1059.17
2017-01-18T01:47:02.174Z,1059.19
2017-01-18T01:48:02.157Z,1059.18
2017-01-18T01:49:02.141Z,1059.17
2017-01-18T01:50:02.125Z,1059.15
2017-01-18T01:51:02.109Z,1059.16
2017-01-18T01:52:02.092Z,1059.16
2017-01-18T01:53:02.076Z,1059.19
2017-01-18T01:54:02.060Z,1059.18
2017-01-18T01:55:02.043Z,1059.2
2017-01-18T01:56:02.027Z,1059.18
2017-01-18T01:57:02.011Z,1059.18
2017-01-18T01:58:01.995Z,1059.14
2017-01-18T01:59:01.978Z,1059.14
2017-01-18T02:00:01.961Z,1059.11
2017-01-18T02:01:01.946Z,1059.09
2017-01-18T02:02:01.929Z,1059.01
2017-01-18T02:03:01.913Z,1059.01
2017-01-18T02:04:01.896Z,1059.02
2017-01-18T02:05:01.880Z,1058.97
2017-01-18T02:06:01.863Z,1058.96
2017-01-18T02:07:01.848Z,1058.95
2017-01-18T02:08:01.831Z,1058.95
2017-01-18T02:09:01.815Z,1059.03
2017-01-18T02:10:01.799Z,1058.93
2017-01-18T02:11:01.782Z,1058.92
2017-01-18T02:12:01.768Z,1058.9
2017-01-18T02:13:01.749Z,1058.94
2017-01-18T02:14:01.735Z,1058.92
2017-01-18T02:15:01.718Z,1058.88
2017-01-18T02:16:01.701Z,1058.84
2017-01-18T02:17:01.685Z,1058.75
2017-01-18T02:18:01.669Z,1058.73
2017-01-18T02:19:01.652Z,1058.72
2017-01-18T02:20:01.637Z,1058.76
2017-01-18T02:21:01.621Z,1058.78
2017-01-18T02:22:01.605Z,1058.76
2017-01-18T02:23:01.589Z,1058.75
2017-01-18T02:24:01.572Z,1058.74
2017-01-18T02:25:01.556Z,1058.73
2017-01-18T02:26:01.540Z,1058.72
2017-01-18T02:27:01.524Z,1058.7
2017-01-18T02:28:01.507Z,1058.7
2017-01-18T02:29:01.492Z,1058.72
2017-01-18T02:30:01.476Z,1058.73
2017-01-18T02:31:01.459Z,1058.72
2017-01-18T02:32:01.443Z,1058.65
2017-01-18T02:33:01.427Z,1058.67
2017-01-18T02:34:01.411Z,1058.65
2017-01-18T02:35:01.394Z,1058.6
2017-01-18T02:36:01.378Z,1058.54
2017-01-18T02:37:01.363Z,1058.5
2017-01-18T02:38:01.347Z,1058.53
2017-01-18T02:39:01.332Z,1058.51
2017-01-18T02:40:01.314Z,1058.51
2017-01-18T02:41:01.299Z,1058.57
2017-01-18T02:42:01.283Z,1058.55
2017-01-18T02:43:01.266Z,1058.56
2017-01-18T02:44:01.251Z,1058.56
2017-01-18T02:45:01.234Z,1058.55
2017-01-18T02:46:01.218Z,1058.57
2017-01-18T02:47:01.202Z,1058.56
2017-01-18T02:48:01.186Z,1058.58
2017-01-18T02:49:01.170Z,1058.61
2017-01-18T02:50:01.153Z,1058.66
2017-01-18T02:51:01.137Z,1058.69
2017-01-18T02:52:01.122Z,1058.69
2017-01-18T02:53:01.105Z,1058.72
2017-01-18T02:54:01.089Z,1058.69
2017-01-18T02:55:01.074Z,1058.73
2017-01-18T02:56:01.058Z,1058.71
2017-01-18T02:57:01.041Z,1058.67
2017-01-18T02:58:01.028Z,1058.67
2017-01-18T02:59:01.009Z,1058.65
2017-01-18T03:00:00.994Z,1058.67
2017-01-18T03:01:00.977Z,1058.71
2017-01-18T03:02:00.961Z,1058.76
2017-01-18T03:03:00.945Z,1058.82
2017-01-18T03:04:00.929Z,1058.83
2017-01-18T03:05:00.912Z,1058.84
2017-01-18T03:06:00.896Z,1058.87
2017-01-18T03:07:00.881Z,1058.85
2017-01-18T03:08:00.864Z,1058.85
2017-01-18T03:09:00.848Z,1058.88
2017-01-18T03:10:00.832Z,1058.89
2017-01-18T03:11:00.816Z,1058.79
2017-01-18T03:12:00.800Z,1058.7
2017-01-18T03:13:00.783Z,1058.63
2017-01-18T03:14:00.768Z,1058.57
2017-01-18T03:15:00.751Z,1058.58
2017-01-18T03:16:00.735Z,1058.54
2017-01-18T03:17:00.719Z,1058.5
2017-01-18T03:18:00.703Z,1058.48
2017-01-18T03:19:00.686Z,1058.4
2017-01-18T03:20:00.671Z,1058.39
2017-01-18T03:21:00.655Z,1058.37
2017-01-18T03:22:00.640Z,1058.43
2017-01-18T03:23:00.622Z,1058.43
2017-01-18T03:24:00.606Z,1058.44
2017-01-18T03:25:00.590Z,1058.43
2017-01-18T03:26:00.574Z,1058.44
2017-01-18T03:27:00.558Z,1058.45
2017-01-18T03:28:00.542Z,1058.48
2017-01-18T03:29:00.527Z,1058.53
2017-01-18T03:30:00.510Z,1058.6
2017-01-18T03:31:00.494Z,1058.65
2017-01-18T03:32:00.478Z,1058.65
2017-01-18T03:33:00.462Z,1058.65
2017-01-18T03:34:00.445Z,1058.64
2017-01-18T03:35:00.430Z,1058.61
2017-01-18T03:36:00.414Z,1058.55
2017-01-18T03:37:00.397Z,1058.54
2017-01-18T03:38:00.381Z,1058.52
2017-01-18T03:39:00.366Z,1058.48
2017-01-18T03:40:00.350Z,1058.49
2017-01-18T03:41:00.333Z,1058.51
2017-01-18T03:42:00.317Z,1058.47
2017-01-18T03:43:00.301Z,1058.44
2017-01-18T03:44:00.286Z,1058.46
2017-01-18T03:45:00.269Z,1058.44
2017-01-18T03:46:00.253Z,1058.41
2017-01-18T03:47:00.238Z,1058.35
2017-01-18T03:48:00.221Z,1058.35
2017-01-18T03:49:00.205Z,1058.4
2017-01-18T03:50:00.189Z,1058.43
2017-01-18T03:51:00.174Z,1058.41
2017-01-18T03:52:00.157Z,1058.38
2017-01-18T03:53:00.141Z,1058.34
2017-01-18T03:54:00.125Z,1058.27
2017-01-18T03:55:00.110Z,1058.27
2017-01-18T03:56:00.094Z,1058.27
2017-01-18T03:57:00.078Z,1058.27
2017-01-18T03:58:00.066Z,1058.27
2017-01-18T03:59:00.046Z,1058.24
2017-01-18T04:00:00.030Z,1058.19
2017-01-18T04:01:00.015Z,1058.17
2017-01-18T04:02:00.000Z,1058.11
2017-01-18T04:02:59.982Z,1058.15
2017-01-18T04:03:59.966Z,1058.15
2017-01-18T04:04:59.951Z,1058.18
2017-01-18T04:05:59.934Z,1058.15
2017-01-18T04:06:59.919Z,1058.21
2017-01-18T04:07:59.903Z,1058.21
2017-01-18T04:08:59.887Z,1058.24
2017-01-18T04:09:59.871Z,1058.27
2017-01-18T04:10:59.855Z,1058.26
2017-01-18T04:11:59.839Z,1058.28
2017-01-18T04:12:59.824Z,1058.25
2017-01-18T04:13:59.807Z,1058.21
2017-01-18T04:14:59.792Z,1058.22
2017-01-18T04:15:59.779Z,1058.23
2017-01-18T04:16:59.759Z,1058.25
2017-01-18T04:17:59.744Z,1058.26
2017-01-18T04:18:59.727Z,1058.31
2017-01-18T04:19:59.713Z,1058.35
2017-01-18T04:20:59.695Z,1058.36
2017-01-18T04:21:59.680Z,1058.41
2017-01-18T04:22:59.664Z,1058.43
2017-01-18T04:23:59.647Z,1058.45
2017-01-18T04:24:59.631Z,1058.45
2017-01-18T04:25:59.615Z,1058.37
2017-01-18T04:26:59.599Z,1058.37
2017-01-18T04:27:59.582Z,1058.34
2017-01-18T04:28:59.567Z,1058.33
2017-01-18T04:29:59.551Z,1058.34
2017-01-18T04:30:59.535Z,1058.38
2017-01-18T04:31:59.518Z,1058.41
2017-01-18T04:32:59.503Z,1058.4
2017-01-18T04:33:59.487Z,1058.38
2017-01-18T04:34:59.472Z,1058.38
2017-01-18T04:35:59.455Z,1058.4
2017-01-18T04:36:59.440Z,1058.37
2017-01-18T04:37:59.424Z,1058.34
2017-01-18T04:38:59.408Z,1058.34
2017-01-18T04:39:59.392Z,1058.38
2017-01-18T04:40:59.380Z,1058.37
2017-01-18T04:41:59.361Z,1058.32
2017-01-18T04:42:59.346Z,1058.34
2017-01-18T04:43:59.329Z,1058.27
2017-01-18T04:44:59.314Z,1058.25
2017-01-18T04:45:59.298Z,1058.23
2017-01-18T04:46:59.282Z,1058.22
2017-01-18T04:47:59.266Z,1058.26
2017-01-18T04:48:59.251Z,1058.22
2017-01-18T04:49:59.235Z,1058.21
2017-01-18T04:50:59.219Z,1058.25
2017-01-18T04:51:59.203Z,1058.23
2017-01-18T04:52:59.188Z,1058.27
2017-01-18T04:53:59.172Z,1058.26
2017-01-18T04:54:59.156Z,1058.28
2017-01-18T04:55:59.141Z,1058.26
2017-01-18T04:56:59.128Z,1058.26
2017-01-18T04:57:59.109Z,1058.29
2017-01-18T04:58:59.093Z,1058.26
2017-01-18T04:59:59.077Z,1058.29
2017-01-18T05:00:59.061Z,1058.34
2017-01-18T05:01:59.046Z,1058.36
2017-01-18T05:02:59.030Z,1058.31
2017-01-18T05:03:59.015Z,1058.27
2017-01-18T05:04:59.001Z,1058.29
2017-01-18T05:05:58.983Z,1058.3
2017-01-18T05:06:58.967Z,1058.34
2017-01-18T05:07:58.952Z,1058.34
2017-01-18T05:08:58.935Z,1058.34
2017-01-18T05:09:58.920Z,1058.36
2017-01-18T05:10:58.905Z,1058.32
2017-01-18T05:11:58.888Z,1058.32
2017-01-18T05:12:58.873Z,1058.34
2017-01-18T05:13:58.857Z,1058.34
2017-01-18T05:14:58.842Z,1058.32
2017-01-18T05:15:58.825Z,1058.31
2017-01-18T05:16:58.810Z,1058.33
2017-01-18T05:17:58.795Z,1058.32
2017-01-18T05:18:58.779Z,1058.35
2017-01-18T05:19:58.763Z,1058.35
2017-01-18T05:20:58.747Z,1058.38
2017-01-18T05:21:58.732Z,1058.37
2017-01-18T05:22:58.715Z,1058.34
2017-01-18T05:23:58.700Z,1058.29
2017-01-18T05:24:58.684Z,1058.31
2017-01-18T05:25:58.669Z,1058.37
2017-01-18T05:26:58.652Z,1058.37
2017-01-18T05:27:58.636Z,1058.36
2017-01-18T05:28:58.621Z,1058.39
2017-01-18T05:29:58.606Z,1058.42
2017-01-18T05:30:58.590Z,1058.45
2017-01-18T05:31:58.577Z,1058.47
2017-01-18T05:32:58.560Z,1058.49
2017-01-18T05:33:58.543Z,1058.53
2017-01-18T05:34:58.528Z,1058.56
2017-01-18T05:35:58.512Z,1058.59
2017-01-18T05:36:58.497Z,1058.54
2017-01-18T05:37:58.481Z,1058.56
2017-01-18T05:38:58.465Z,1058.55
2017-01-18T05:39:58.450Z,1058.54
2017-01-18T05:40:58.433Z,1058.55
2017-01-18T05:41:58.417Z,1058.6
2017-01-18T05:42:58.402Z,1058.61
2017-01-18T05:43:58.387Z,1058.61
2017-01-18T05:44:58.720Z,1058.58
2017-01-18T05:45:58.355Z,1058.61
2017-01-18T05:46:58.339Z,1058.6
2017-01-18T05:47:58.324Z,1058.65
2017-01-18T05:48:58.307Z,1058.66
2017-01-18T05:49:58.297Z,1058.63
2017-01-18T05:50:58.278Z,1058.56
2017-01-18T05:51:58.260Z,1058.49
2017-01-18T05:52:58.244Z,1058.47
2017-01-18T05:53:58.229Z,1058.46
2017-01-18T05:54:58.213Z,1058.48
2017-01-18T05:55:58.198Z,1058.49
2017-01-18T05:56:58.181Z,1058.52
2017-01-18T05:57:58.167Z,1058.58
2017-01-18T05:58:58.150Z,1058.55
2017-01-18T05:59:58.135Z,1058.6
2017-01-18T06:00:58.119Z,1058.6
2017-01-18T06:01:58.105Z,1058.58
2017-01-18T06:02:58.087Z,1058.58
2017-01-18T06:03:58.071Z,1058.62
2017-01-18T06:04:58.055Z,1058.6
2017-01-18T06:05:58.041Z,1058.65
2017-01-18T06:06:58.024Z,1058.75
2017-01-18T06:07:58.008Z,1058.79
2017-01-18T06:08:57.993Z,1058.78
2017-01-18T06:09:57.990Z,1058.78
2017-01-18T06:10:57.961Z,1058.8
2017-01-18T06:11:57.946Z,1058.78
2017-01-18T06:12:57.930Z,1058.82
2017-01-18T06:13:57.914Z,1058.87
2017-01-18T06:14:57.898Z,1058.87
2017-01-18T06:15:57.883Z,1058.93
2017-01-18T06:16:57.867Z,1058.89
2017-01-18T06:17:57.851Z,1058.83
2017-01-18T06:18:57.836Z,1058.81
2017-01-18T06:19:57.820Z,1058.76
2017-01-18T06:20:57.805Z,1058.74
2017-01-18T06:21:57.789Z,1058.74
2017-01-18T06:22:57.773Z,1058.72
2017-01-18T06:23:57.758Z,1058.7
2017-01-18T06:24:57.742Z,1058.78
2017-01-18T06:25:57.729Z,1058.87
2017-01-18T06:26:57.711Z,1058.85
2017-01-18T06:27:57.696Z,1058.92
2017-01-18T06:28:57.679Z,1059
2017-01-18T06:29:57.665Z,1059.04
2017-01-18T06:30:57.649Z,1059.12
2017-01-18T06:31:57.633Z,1059.15
2017-01-18T06:32:57.617Z,1059.21
2017-01-18T06:33:57.602Z,1059.28
2017-01-18T06:34:57.587Z,1059.3
2017-01-18T06:35:57.569Z,1059.34
2017-01-18T06:36:57.554Z,1059.41
2017-01-18T06:37:57.538Z,1059.44
2017-01-18T06:38:57.523Z,1059.47
2017-01-18T06:39:57.506Z,1059.47
2017-01-18T06:40:57.491Z,1059.43
2017-01-18T06:41:57.475Z,1059.46
2017-01-18T06:42:57.460Z,1059.45
2017-01-18T06:43:57.444Z,1059.38
2017-01-18T06:44:57.428Z,1059.39
2017-01-18T06:45:57.412Z,1059.35
2017-01-18T06:46:57.396Z,1059.33
2017-01-18T06:47:57.380Z,1059.36
2017-01-18T06:48:57.364Z,1059.33
2017-01-18T06:49:57.349Z,1059.33
2017-01-18T06:50:57.333Z,1059.34
2017-01-18T06:51:57.317Z,1059.36
2017-01-18T06:52:57.302Z,1059.37
2017-01-18T06:53:57.286Z,1059.4
2017-01-18T06:54:57.270Z,1059.43
2017-01-18T06:55:57.254Z,1059.47
2017-01-18T06:56:57.238Z,1059.5
2017-01-18T06:57:57.222Z,1059.51
2017-01-18T06:58:57.206Z,1059.53
2017-01-18T06:59:57.191Z,1059.52
2017-01-18T07:00:57.176Z,1059.53
2017-01-18T07:01:57.158Z,1059.56
2017-01-18T07:02:57.143Z,1059.57
2017-01-18T07:03:57.127Z,1059.55
2017-01-18T07:04:57.112Z,1059.51
2017-01-18T07:05:57.096Z,1059.52
2017-01-18T07:06:57.081Z,1059.48
2017-01-18T07:07:57.065Z,1059.45
2017-01-18T07:08:57.049Z,1059.41
2017-01-18T07:09:57.033Z,1059.37
2017-01-18T07:10:57.017Z,1059.36
2017-01-18T07:11:57.002Z,1059.34
2017-01-18T07:12:56.985Z,1059.31
2017-01-18T07:13:56.970Z,1059.3
2017-01-18T07:14:56.955Z,1059.31
2017-01-18T07:15:56.938Z,1059.31
2017-01-18T07:16:56.924Z,1059.28
2017-01-18T07:17:56.909Z,1059.27
2017-01-18T07:18:56.892Z,1059.27
2017-01-18T07:19:56.875Z,1059.25
2017-01-18T07:20:56.860Z,1059.24
2017-01-18T07:21:56.844Z,1059.24
2017-01-18T07:22:56.829Z,1059.19
2017-01-18T07:23:56.813Z,1059.24
2017-01-18T07:24:56.797Z,1059.24
2017-01-18T07:25:56.782Z,1059.29
2017-01-18T07:26:56.766Z,1059.37
2017-01-18T07:27:56.750Z,1059.39
2017-01-18T07:28:56.735Z,1059.41
2017-01-18T07:29:56.720Z,1059.47
2017-01-18T07:30:56.703Z,1059.46
2017-01-18T07:31:56.688Z,1059.42
2017-01-18T07:32:56.672Z,1059.42
2017-01-18T07:33:56.657Z,1059.31
2017-01-18T07:34:56.641Z,1059.26
2017-01-18T07:35:56.626Z,1059.23
2017-01-18T07:36:56.610Z,1059.14
2017-01-18T07:37:56.594Z,1059.09
2017-01-18T07:38:56.579Z,1059.07
2017-01-18T07:39:56.564Z,1059.03
2017-01-18T07:40:56.548Z,1059.03
2017-01-18T07:41:56.532Z,1058.94
2017-01-18T07:42:56.517Z,1058.96
2017-01-18T07:43:56.502Z,1058.94
2017-01-18T07:44:56.486Z,1058.93
2017-01-18T07:45:56.470Z,1058.93
2017-01-18T07:46:56.455Z,1058.96
2017-01-18T07:47:56.443Z,1058.97
2017-01-18T07:48:56.424Z,1058.99
2017-01-18T07:49:56.409Z,1058.97
2017-01-18T07:50:56.394Z,1058.99
2017-01-18T07:51:56.379Z,1058.99
2017-01-18T07:52:56.362Z,1059
2017-01-18T07:53:56.348Z,1059.02
2017-01-18T07:54:56.333Z,1059.02
2017-01-18T07:55:56.318Z,1059.1
2017-01-18T07:56:56.302Z,1059.1
2017-01-18T07:57:56.287Z,1059.12
2017-01-18T07:58:56.272Z,1059.11
2017-01-18T07:59:56.257Z,1059.13
2017-01-18T08:00:56.241Z,1059.12
2017-01-18T08:01:56.229Z,1059.09
2017-01-18T08:02:56.212Z,1059.09
2017-01-18T08:03:56.196Z,1059.11
2017-01-18T08:04:56.180Z,1059.14
2017-01-18T08:05:56.165Z,1059.14
2017-01-18T08:06:56.150Z,1059.14
2017-01-18T08:07:56.134Z,1059.14
2017-01-18T08:08:56.120Z,1059.1
2017-01-18T08:09:56.104Z,1059.1
2017-01-18T08:10:56.089Z,1059.1
2017-01-18T08:11:56.074Z,1059.07
2017-01-18T08:12:56.059Z,1059.1
2017-01-18T08:13:56.044Z,1059.07
2017-01-18T08:14:56.028Z,1059.13
2017-01-18T08:15:56.013Z,1059.19
2017-01-18T08:16:56.000Z,1059.24
2017-01-18T08:17:55.983Z,1059.23
2017-01-18T08:18:55.968Z,1059.15
2017-01-18T08:19:55.952Z,1059.12
2017-01-18T08:20:55.938Z,1059.13
2017-01-18T08:21:55.921Z,1059.17
2017-01-18T08:22:55.907Z,1059.13
2017-01-18T08:23:55.892Z,1059.11
2017-01-18T08:24:55.877Z,1059.1
2017-01-18T08:25:55.861Z,1059.02
2017-01-18T08:26:55.846Z,1058.95
2017-01-18T08:27:55.831Z,1058.94
2017-01-18T08:28:55.818Z,1058.92
2017-01-18T08:29:55.801Z,1058.96
2017-01-18T08:30:55.785Z,1058.93
2017-01-18T08:31:55.771Z,1058.91
2017-01-18T08:32:55.756Z,1058.92
2017-01-18T08:33:55.740Z,1058.95
2017-01-18T08:34:55.725Z,1058.94
2017-01-18T08:35:55.711Z,1058.97
2017-01-18T08:36:55.695Z,1058.9
2017-01-18T08:37:55.681Z,1058.89
2017-01-18T08:38:55.665Z,1058.81
2017-01-18T08:39:55.651Z,1058.69
2017-01-18T08:40:55.636Z,1058.64
2017-01-18T08:41:55.621Z,1058.59
2017-01-18T08:42:55.607Z,1058.57
2017-01-18T08:43:55.591Z,1058.52
2017-01-18T08:44:55.576Z,1058.5
2017-01-18T08:45:55.561Z,1058.45
2017-01-18T08:46:55.547Z,1058.48
2017-01-18T08:47:55.536Z,1058.42
2017-01-18T08:48:55.517Z,1058.43
2017-01-18T08:49:55.503Z,1058.41
2017-01-18T08:50:55.489Z,1058.48
2017-01-18T08:51:55.473Z,1058.42
2017-01-18T08:52:55.459Z,1058.42
2017-01-18T08:53:55.444Z,1058.36
2017-01-18T08:54:55.429Z,1058.29
2017-01-18T08:55:55.414Z,1058.26
2017-01-18T08:56:55.402Z,1058.23
2017-01-18T08:57:55.401Z,1058.27
2017-01-18T08:58:55.371Z,1058.28
2017-01-18T08:59:55.357Z,1058.28
2017-01-18T09:00:55.343Z,1058.33
2017-01-18T09:01:55.328Z,1058.31
2017-01-18T09:02:55.313Z,1058.31
2017-01-18T09:03:55.300Z,1058.37
2017-01-18T09:04:55.285Z,1058.38
2017-01-18T09:05:55.270Z,1058.42
2017-01-18T09:06:55.256Z,1058.42
2017-01-18T09:07:55.242Z,1058.49
2017-01-18T09:08:55.228Z,1058.45
2017-01-18T09:09:55.213Z,1058.46
2017-01-18T09:10:55.199Z,1058.42
2017-01-18T09:11:55.185Z,1058.45
2017-01-18T09:12:55.172Z,1058.41
2017-01-18T09:13:55.156Z,1058.35
2017-01-18T09:14:55.142Z,1058.28
2017-01-18T09:15:55.128Z,1058.24
2017-01-18T09:16:55.112Z,1058.26
2017-01-18T09:17:55.099Z,1058.27
2017-01-18T09:18:55.085Z,1058.21
2017-01-18T09:19:55.070Z,1058.23
2017-01-18T09:20:55.056Z,1058.16
2017-01-18T09:21:55.042Z,1058.12
2017-01-18T09:22:55.028Z,1058.03
2017-01-18T09:23:55.013Z,1058.02
2017-01-18T09:24:54.999Z,1058
2017-01-18T09:25:54.985Z,1057.93
2017-01-18T09:26:54.972Z,1057.97
2017-01-18T09:27:54.957Z,1057.97
2017-01-18T09:28:54.944Z,1057.92
2017-01-18T09:29:54.930Z,1057.92
2017-01-18T09:30:54.916Z,1057.87
2017-01-18T09:31:54.901Z,1057.86
2017-01-18T09:32:54.888Z,1057.84
2017-01-18T09:33:54.875Z,1057.85
2017-01-18T09:34:54.860Z,1057.85
2017-01-18T09:35:54.846Z,1057.82
2017-01-18T09:36:54.833Z,1057.74
2017-01-18T09:37:54.819Z,1057.64
2017-01-18T09:38:54.804Z,1057.62
2017-01-18T09:39:54.791Z,1057.65
2017-01-18T09:40:54.777Z,1057.58
2017-01-18T09:41:54.764Z,1057.56
2017-01-18T09:42:54.750Z,1057.51
2017-01-18T09:43:54.736Z,1057.4
2017-01-18T09:44:54.724Z,1057.34
2017-01-18T09:45:54.709Z,1057.26
2017-01-18T09:46:54.695Z,1057.27
2017-01-18T09:47:54.684Z,1057.21
2017-01-18T09:48:54.669Z,1057.2
2017-01-18T09:49:54.655Z,1057.19
2017-01-18T09:50:54.642Z,1057.19
2017-01-18T09:51:54.629Z,1057.15
2017-01-18T09:52:54.616Z,1057.14
2017-01-18T09:53:54.603Z,1057.14
2017-01-18T09:54:54.590Z,1057.14
2017-01-18T09:55:54.578Z,1057.12
2017-01-18T09:56:54.564Z,1057.15
2017-01-18T09:57:54.551Z,1057.16
2017-01-18T09:58:54.540Z,1057.2
2017-01-18T09:59:54.526Z,1057.23
2017-01-18T10:00:54.512Z,1057.25
2017-01-18T10:01:54.500Z,1057.32
2017-01-18T10:02:54.487Z,1057.35
2017-01-18T10:03:54.475Z,1057.36
2017-01-18T10:04:54.461Z,1057.41
2017-01-18T10:05:54.448Z,1057.43
2017-01-18T10:06:54.436Z,1057.46
2017-01-18T10:07:54.422Z,1057.47
2017-01-18T10:08:54.411Z,1057.46
2017-01-18T10:09:54.397Z,1057.44
2017-01-18T10:10:54.385Z,1057.37
2017-01-18T10:11:54.371Z,1057.31
2017-01-18T10:12:54.359Z,1057.29
2017-01-18T10:13:54.346Z,1057.27
2017-01-18T10:14:54.334Z,1057.23
2017-01-18T10:15:54.321Z,1057.13
2017-01-18T10:16:54.309Z,1057.03
2017-01-18T10:17:54.296Z,1056.98
2017-01-18T10:18:54.283Z,1056.9
2017-01-18T10:19:54.270Z,1056.9
2017-01-18T10:20:54.258Z,1056.87
2017-01-18T10:21:54.246Z,1056.86
2017-01-18T10:22:54.232Z,1056.75
2017-01-18T10:23:54.220Z,1056.65
2017-01-18T10:24:54.207Z,1056.59
2017-01-18T10:25:54.194Z,1056.49
2017-01-18T10:26:54.182Z,1056.42
2017-01-18T10:27:54.170Z,1056.39
2017-01-18T10:28:54.158Z,1056.35
2017-01-18T10:29:54.144Z,1056.24
2017-01-18T10:30:54.132Z,1056.21
2017-01-18T10:31:54.120Z,1056.21
2017-01-18T10:32:54.108Z,1056.17
2017-01-18T10:33:54.096Z,1056.15
2017-01-18T10:34:54.083Z,1056.09
2017-01-18T10:35:54.071Z,1056.1
2017-01-18T10:36:54.058Z,1056.08
2017-01-18T10:37:54.048Z,1056.11
2017-01-18T10:38:54.034Z,1056.09
2017-01-18T10:39:54.022Z,1056.12
2017-01-18T10:40:54.010Z,1056.06
2017-01-18T10:41:53.997Z,1056.08
2017-01-18T10:42:53.986Z,1056.11
2017-01-18T10:43:53.974Z,1056.1
2017-01-18T10:44:53.962Z,1056.12
2017-01-18T10:45:53.949Z,1056.15
2017-01-18T10:46:53.938Z,1056.11
2017-01-18T10:47:53.925Z,1056.05
2017-01-18T10:48:53.913Z,1055.95
2017-01-18T10:49:53.902Z,1055.93
2017-01-18T10:50:53.890Z,1055.89
2017-01-18T10:51:53.878Z,1055.87
2017-01-18T10:52:53.867Z,1055.86
2017-01-18T10:53:53.854Z,1055.83
2017-01-18T10:54:53.843Z,1055.88
2017-01-18T10:55:53.830Z,1055.88
2017-01-18T10:56:53.818Z,1055.91
2017-01-18T10:57:53.808Z,1055.92
2017-01-18T10:58:53.794Z,1055.94
2017-01-18T10:59:53.783Z,1055.99
2017-01-18T11:00:53.771Z,1055.99
2017-01-18T11:01:53.760Z,1055.94
2017-01-18T11:02:53.748Z,1056.01
2017-01-18T11:03:53.738Z,1055.99
2017-01-18T11:04:53.724Z,1055.95
2017-01-18T11:05:53.713Z,1055.95
2017-01-18T11:06:53.700Z,1055.92
2017-01-18T11:07:53.689Z,1055.95
2017-01-18T11:08:53.677Z,1055.87
2017-01-18T11:09:53.665Z,1055.86
2017-01-18T11:10:53.654Z,1055.81
2017-01-18T11:11:53.642Z,1055.83
2017-01-18T11:12:53.630Z,1055.81
2017-01-18T11:13:53.619Z,1055.8
2017-01-18T11:14:53.606Z,1055.81
2017-01-18T11:15:53.595Z,1055.8
2017-01-18T11:16:53.583Z,1055.84
2017-01-18T11:17:53.572Z,1055.83
2017-01-18T11:18:53.559Z,1055.87
2017-01-18T11:19:53.548Z,1055.91
2017-01-18T11:20:53.536Z,1055.93
2017-01-18T11:21:53.524Z,1055.98
2017-01-18T11:22:53.513Z,1055.98
2017-01-18T11:23:53.501Z,1056.02
2017-01-18T11:24:53.489Z,1056.1
2017-01-18T11:25:53.477Z,1056.07
2017-01-18T11:26:53.466Z,1056.09
2017-01-18T11:27:53.455Z,1056.15
2017-01-18T11:28:53.442Z,1056.14
2017-01-18T11:29:53.430Z,1056.12
2017-01-18T11:30:53.419Z,1056.07
2017-01-18T11:31:53.407Z,1056.04
2017-01-18T11:32:53.395Z,1056.03
2017-01-18T11:33:53.383Z,1056.02
2017-01-18T11:34:53.372Z,1056.04
2017-01-18T11:35:53.359Z,1056
2017-01-18T11:36:53.348Z,1056.02
2017-01-18T11:37:53.336Z,1056.07
2017-01-18T11:38:53.325Z,1056.04
2017-01-18T11:39:53.312Z,1056.05
2017-01-18T11:40:53.302Z,1056.07
2017-01-18T11:41:53.289Z,1055.98
2017-01-18T11:42:53.277Z,1056.01
2017-01-18T11:43:53.268Z,1056.01
2017-01-18T11:44:53.253Z,1056.04
2017-01-18T11:45:53.243Z,1056.06
2017-01-18T11:46:53.230Z,1056.05
2017-01-18T11:47:53.218Z,1056.15
2017-01-18T11:48:53.206Z,1056.15
2017-01-18T11:49:53.194Z,1056.23
2017-01-18T11:50:53.183Z,1056.25
2017-01-18T11:51:53.173Z,1056.27
2017-01-18T11:52:53.160Z,1056.25
2017-01-18T11:53:53.147Z,1056.32
2017-01-18T11:54:53.136Z,1056.55
2017-01-18T11:55:53.124Z,1056.61
2017-01-18T11:56:53.112Z,1056.68
2017-01-18T11:57:53.099Z,1056.64
2017-01-18T11:58:53.088Z,1056.61
2017-01-18T11:59:53.076Z,1056.61
2017-01-18T12:00:53.063Z,1056.6
2017-01-18T12:01:53.051Z,1056.6
2017-01-18T12:02:53.039Z,1056.58
2017-01-18T12:03:53.027Z,1056.6
2017-01-18T12:04:53.015Z,1056.62
2017-01-18T12:05:53.003Z,1056.63
2017-01-18T12:06:52.992Z,1056.63
2017-01-18T12:07:52.979Z,1056.57